Tiempo atmosférico en la estación meteorológica de Ejea De Los Caballeros, Zaragoza (321 m.)



Fecha
DESCASC
Temp. máxima en grados centígrados (hora)
DESCASC
Temp. mínima en grados centígrados (hora)
DESCASC
Temp. media en grados centígrados
DESCASC
Racha de viento máxima en m/sg (hora)
DESCASC
Velocidad máxima media en intervalos de 10 minutos(hora)
DESCASC
Precipitaciones diarias en mm
DESCASC
Precipitaciones de 00:00 a 06:00 en mm
DESCASC
Precipitaciones de 06:00 a 12:00 en mm
DESCASC
Precipitaciones de 12:00 a 18:00 en mm
DESCASC
Precipitaciones de 18:00 a 24:00 en mm
DESCASC
21-03-2019 17.1 (16:00) -1.4 (06:40) 7.9 4.72 (00:10) 1.67 (15:00) 0 0 0 0 0
20-03-2019 16.9 (15:10) 0.1 (07:40) 8.5 5.83 (14:50) 2.5 (14:10) 0 0 0 0 0
19-03-2019 13.9 (13:20) 5.3 (06:00) 9.6 13.89 (13:00) 5.56 (12:40) 0 0 0 0 0
18-03-2019 14.6 (15:00) 4.5 (07:10) 9.6 12.78 (15:40) 5.28 (14:10) 0 0 0 0 0
17-03-2019 17 (15:00) 4.2 (00:00) 10.6 12.5 (15:20) 5.28 (15:10) 0 0 0 0 0
16-03-2019 25.6 (16:10) 1.1 (00:00) 13.4 5.83 (17:10) 2.22 (01:10) 0 0 0 0 0
15-03-2019 19.3 (17:00) 4.4 (00:00) 11.8 7.22 (15:20) 3.06 (15:20) 0 0 0 0 0
14-03-2019 13.6 (14:50) 6 (00:00) 9.8 11.67 (15:10) 5 (15:30) 0 0 0 0 0
13-03-2019 13.3 (14:30) 6 (07:50) 9.7 12.22 (15:10) 5.56 (16:10) 0 0 0 0 0
12-03-2019 18.8 (16:10) 0.2 (00:00) 9.5 6.39 (14:10) 2.5 (13:30) 0 0 0 0 0
11-03-2019 16.7 (14:40) 5.9 (00:00) 11.3 9.72 (13:20) 3.89 (13:00) 0 0 0 0 0
10-03-2019 19.7 (14:00) 3.8 (00:00) 11.8 10.83 (13:20) 4.44 (14:30) 0 0 0 0 0
09-03-2019 19.9 (16:00) 2.3 (00:00) 11.1 6.11 (14:00) 2.5 (10:30) 0.2 0.2 0 0 0
08-03-2019 15.7 (16:50) 5.8 (00:00) 10.8 7.22 (14:40) 3.06 (12:40) 0.4 0 0.4 0 0
07-03-2019 15.9 (16:30) 5.6 (00:00) 10.7 6.67 (00:10) 2.78 (00:10) 0.4 0.2 0.2 0 0
06-03-2019 15.7 (16:00) 9.7 (00:00) 12.7 12.78 (17:00) 4.72 (12:20) 4.2 0 0 4.2 0
05-03-2019 19.4 (16:00) 4.1 (00:00) 11.7 6.94 (21:40) 2.22 (19:30) 0 0 0 0 0
04-03-2019 19.1 (15:20) 8.7 (00:00) 13.9 7.22 (11:20) 3.06 (06:00) 0 0 0 0 0
03-03-2019 22 (15:40) 1.8 (00:00) 11.9 6.11 (15:30) 2.22 (14:50) 0 0 0 0 0
02-03-2019 20 (15:40) 7.2 (00:00) 13.6 9.72 (14:40) 3.61 (14:40) 0 0 0 0 0
01-03-2019 18.1 (16:10) 3.8 (00:00) 11 6.94 (15:50) 3.06 (15:20) 0 0 0 0 0
28-02-2019 18.4 (14:50) 6.1 (00:00) 12.2 11.67 (16:10) 5 (16:20) 0 0 0 0 0
27-02-2019 23.4 (16:50) 0.7 (00:00) 12 3.06 (02:30) 1.39 (01:40) 0 0 0 0 0
26-02-2019 22.6 (16:30) 1.4 (00:00) 12 3.61 (14:40) 1.39 (14:10) 0 0 0 0 0
25-02-2019 19.4 (16:10) 0.4 (00:00) 9.9 3.33 (16:20) 1.67 (16:20) 0 0 0 0 0
24-02-2019 18.5 (15:40) 2 (00:00) 10.3 6.94 (11:40) 2.5 (11:50) 0 0 0 0 0
23-02-2019 23.5 (15:40) -1 (-00:0) 11.3 8.06 (17:50) 3.61 (17:50) 0 0 0 0 0
22-02-2019 21.1 (16:40) -0.3 (00:00) 10.4 5.28 (15:40) 2.78 (14:00) 0 0 0 0 0
21-02-2019 18.7 (16:00) 1.1 (07:40) 9.9 3.33 (13:30) 1.67 (13:20) 0 0 0 0 0
20-02-2019 15.6 (17:00) 1.9 (07:40) 8.8 5.28 (10:30) 1.67 (15:00) 0 0 0 0 0

Gráficas

Temp. máximas Temp. mínimas Temp. medias Precipitaciones Rachas de viento máximas Velocidades máximas media en intervalos de 10 minutos

Datos horarios

Fecha y hora oficial Temperatura (ºC) Velocidad del viento (km/h) Dirección del viento Racha (km/h) Dirección de racha Precipitación (mm) Presión (hPa) Tendencia (hPa) Humedad (%)
2019-03-21 23:00:00 5.8 3 Nordeste 9 Nordeste 0 -- -- 67
2019-03-21 22:00:00 6.9 3 Nordeste 8 Este 0 -- -- 63
2019-03-21 21:00:00 9.2 2 Nordeste 3 Este 0 -- -- 51
2019-03-21 20:00:00 12.1 0 Calma 4 Sudoeste 0 -- -- 43
2019-03-21 19:00:00 15.1 3 Sudoeste 10 Este 0 -- -- 37
2019-03-21 18:00:00 16.1 2 Sudoeste 11 Noroeste 0 -- -- 32
2019-03-21 17:00:00 16.8 4 Norte 14 Sudoeste 0 -- -- 32
2019-03-21 16:00:00 17.1 5 Sudoeste 13 Sudoeste 0 -- -- 35
2019-03-21 15:00:00 16.3 6 Sudoeste 14 Sudoeste 0 -- -- 40
2019-03-21 14:00:00 15.6 5 Sur 11 Sudoeste 0 -- -- 41
2019-03-21 13:00:00 14.4 3 Sur 16 Sudoeste 0 -- -- 43
2019-03-21 12:00:00 12.9 4 Sudoeste 11 Noroeste 0 -- -- 47
2019-03-21 11:00:00 10.5 4 Oeste 14 Sudoeste 0 -- -- 59
2019-03-21 10:00:00 6.7 2 Sudeste 6 Oeste 0 -- -- 71
2019-03-21 09:00:00 1 2 Sudoeste 5 Sudoeste 0 -- -- 87
2019-03-21 08:00:00 -1.3 0 Calma 3 Nordeste 0 -- -- 88
2019-03-21 07:00:00 -1.4 0 Calma 2 Sudoeste 0 -- -- 88
2019-03-21 06:00:00 -1.1 2 Nordeste 4 Nordeste 0 -- -- 85
2019-03-21 05:00:00 -0.5 0 Calma 6 Nordeste 0 -- -- 86
2019-03-21 04:00:00 0.1 0 Calma 3 Este 0 -- -- 81
2019-03-21 03:00:00 1.1 0 Calma 4 Este 0 -- -- 78
2019-03-21 02:00:00 2.7 0 Calma 5 Este 0 -- -- 75
2019-03-21 01:00:00 5.1 2 Nordeste 17 Noroeste 0 -- -- 72
2019-03-21 00:00:00 6.4 6 Oeste 20 Noroeste 0 -- -- 70
2019-03-20 23:00:00 6.8 8 Oeste 18 Sudoeste 0 -- -- 66
2019-03-20 22:00:00 7.9 4 Oeste 14 Noroeste 0 -- -- 55
2019-03-20 21:00:00 8.6 4 Oeste 12 Noroeste 0 -- -- 51
2019-03-20 20:00:00 10.8 4 Sudoeste 11 Noroeste 0 -- -- 45
2019-03-20 19:00:00 14.2 3 Oeste 17 Noroeste 0 -- -- 36
2019-03-20 18:00:00 15.9 5 Oeste 20 Noroeste 0 -- -- 30
2019-03-20 17:00:00 16.5 6 Oeste 19 Oeste 0 -- -- 27
2019-03-20 16:00:00 16.8 6 Oeste 19 Noroeste 0 -- -- 28
2019-03-20 15:00:00 16.7 8 Oeste 21 Sudoeste 0 -- -- 31
2019-03-20 14:00:00 16.4 8 Oeste 19 Noroeste 0 -- -- 31
2019-03-20 13:00:00 15.7 4 Sudoeste 15 Sudoeste 0 -- -- 34
2019-03-20 12:00:00 14.5 3 Nordeste 11 Sudoeste 0 -- -- 35
2019-03-20 11:00:00 12.2 4 Oeste 12 Oeste 0 -- -- 45
2019-03-20 10:00:00 8.2 3 Norte 8 Sudoeste 0 -- -- 68
2019-03-20 09:00:00 2.6 0 Calma 4 Este 0 -- -- 85
2019-03-20 08:00:00 0.1 3 Nordeste 6 Nordeste 0 -- -- 85
2019-03-20 07:00:00 1.2 3 Nordeste 9 Norte 0 -- -- 81
2019-03-20 06:00:00 3.6 3 Norte 15 Oeste 0 -- -- 82
2019-03-20 05:00:00 4.2 5 Oeste 12 Oeste 0 -- -- 80
2019-03-20 04:00:00 4.8 5 Oeste 17 Oeste 0 -- -- 77
2019-03-20 03:00:00 5.2 6 Oeste 21 Oeste 0 -- -- 75
2019-03-20 02:00:00 5.4 6 Oeste 17 Oeste 0 -- -- 74
2019-03-20 01:00:00 5.8 6 Oeste 16 Oeste 0 -- -- 71
2019-03-20 00:00:00 6.2 5 Oeste 19 Noroeste 0 -- -- 68
2019-03-19 23:00:00 6.7 7 Oeste 22 Oeste 0 -- -- 66
2019-03-19 22:00:00 7.2 7 Oeste 22 Noroeste 0 -- -- 64
2019-03-19 21:00:00 8 8 Oeste 24 Oeste 0 -- -- 60
2019-03-19 20:00:00 8.5 7 Oeste 24 Oeste 0 -- -- 55
2019-03-19 19:00:00 10.2 8 Noroeste 30 Noroeste 0 -- -- 52
2019-03-19 18:00:00 11.6 11 Norte 39 Norte 0 -- -- 49
2019-03-19 17:00:00 12.7 12 Norte 34 Norte 0 -- -- 44
2019-03-19 16:00:00 13.5 14 Norte 44 Norte 0 -- -- 43
2019-03-19 15:00:00 13.5 15 Norte 43 Noroeste 0 -- -- 45
2019-03-19 14:00:00 13.9 16 Norte 43 Noroeste 0 -- -- 45
2019-03-19 13:00:00 13.6 18 Norte 50 Norte 0 -- -- 45
2019-03-19 12:00:00 13.2 13 Noroeste 47 Norte 0 -- -- 47
2019-03-19 11:00:00 11.6 11 Noroeste 33 Noroeste 0 -- -- 57
2019-03-19 10:00:00 10 7 Noroeste 28 Nordeste 0 -- -- 67
2019-03-19 09:00:00 7.5 7 Este 23 Oeste 0 -- -- 75
2019-03-19 08:00:00 5.7 6 Oeste 19 Norte 0 -- -- 80
2019-03-19 07:00:00 5.4 6 Oeste 19 Oeste 0 -- -- 79
2019-03-19 06:00:00 5.3 5 Oeste 23 Oeste 0 -- -- 78
2019-03-19 05:00:00 6 6 Oeste 21 Noroeste 0 -- -- 75
2019-03-19 04:00:00 6.7 6 Oeste 24 Oeste 0 -- -- 73
2019-03-19 03:00:00 6.7 7 Oeste 21 Oeste 0 -- -- 74
2019-03-19 02:00:00 6.9 5 Oeste 18 Oeste 0 -- -- 72
2019-03-19 01:00:00 6.8 6 Oeste 19 Oeste 0 -- -- 71
2019-03-19 00:00:00 6.6 8 Oeste 21 Oeste 0 -- -- 70
2019-03-18 23:00:00 7.2 6 Oeste 21 Sudoeste 0 -- -- 66
2019-03-18 22:00:00 8.2 8 Oeste 20 Oeste 0 -- -- 59
2019-03-18 21:00:00 9 5 Oeste 21 Oeste 0 -- -- 56
2019-03-18 20:00:00 9.8 6 Norte 23 Noroeste 0 -- -- 47
2019-03-18 19:00:00 10.8 7 Noroeste 32 Noroeste 0 -- -- 49
2019-03-18 18:00:00 12 10 Norte 41 Norte 0 -- -- 44
2019-03-18 17:00:00 13.5 18 Norte 45 Noroeste 0 -- -- 40
2019-03-18 16:00:00 14.1 12 Norte 46 Noroeste 0 -- -- 42
2019-03-18 15:00:00 14.6 14 Norte 44 Noroeste 0 -- -- 40
2019-03-18 14:00:00 14.2 13 Norte 34 Noroeste 0 -- -- 40
2019-03-18 13:00:00 13.9 10 Norte 42 Norte 0 -- -- 42
2019-03-18 12:00:00 13.4 14 Norte 43 Norte 0 -- -- 42
2019-03-18 11:00:00 12 13 Norte 37 Norte 0 -- -- 48
2019-03-18 10:00:00 9.9 9 Noroeste 35 Sudoeste 0 -- -- 60
2019-03-18 09:00:00 6.6 14 Oeste 34 Oeste 0 -- -- 75
2019-03-18 08:00:00 4.9 10 Oeste 26 Oeste 0 -- -- 80
2019-03-18 07:00:00 4.6 9 Oeste 24 Noroeste 0 -- -- 80
2019-03-18 06:00:00 4.7 7 Oeste 22 Oeste 0 -- -- 78
2019-03-18 05:00:00 5.4 6 Oeste 24 Noroeste 0 -- -- 75
2019-03-18 04:00:00 5.8 7 Oeste 19 Oeste 0 -- -- 73
2019-03-18 03:00:00 6 4 Oeste 18 Oeste 0 -- -- 70
2019-03-18 02:00:00 5.7 6 Oeste 20 Oeste 0 -- -- 68
2019-03-18 01:00:00 5.9 7 Oeste 21 Oeste 0 -- -- 68
2019-03-18 00:00:00 6.4 8 Oeste 22 Oeste 0 -- -- 64
2019-03-17 23:00:00 6.8 6 Norte 23 Oeste 0 -- -- 65
2019-03-17 22:00:00 7.2 7 Oeste 24 Sudoeste 0 -- -- 64
2019-03-17 21:00:00 8.1 6 Oeste 24 Noroeste 0 -- -- 61
2019-03-17 20:00:00 9.1 6 Oeste 22 Norte 0 -- -- 58
2019-03-17 19:00:00 10.8 10 Norte 32 Norte 0 -- -- 53
2019-03-17 18:00:00 12.6 9 Nordeste 33 Noroeste 0 -- -- 49
2019-03-17 17:00:00 13.9 13 Norte 43 Noroeste 0 -- -- 46
2019-03-17 16:00:00 15.4 13 Norte 45 Noroeste 0 -- -- 48
2019-03-17 15:00:00 17 12 Norte 36 Noroeste 0 -- -- 47
2019-03-17 14:00:00 16.6 10 Noroeste 32 Norte 0 -- -- 49
2019-03-17 13:00:00 16.6 13 Norte 40 Norte 0 -- -- 50
2019-03-17 12:00:00 16.6 10 Norte 33 Norte 0 -- -- 50
2019-03-17 11:00:00 16 11 Norte 33 Norte 0 -- -- 51
2019-03-17 10:00:00 13.9 8 Norte 20 Norte 0 -- -- 57
2019-03-17 09:00:00 6.2 2 Sudoeste 5 Norte 0 -- -- 85
2019-03-17 08:00:00 4.2 2 Este 5 Norte 0 -- -- 84
2019-03-17 07:00:00 4.4 0 Calma 4 Este 0 -- -- 85
2019-03-17 06:00:00 5 0 Calma 5 Nordeste 0 -- -- 81
2019-03-17 05:00:00 5.7 0 Calma 5 Nordeste 0 -- -- 80
2019-03-17 04:00:00 6.6 0 Calma 6 Este 0 -- -- 79
2019-03-17 03:00:00 7.7 3 Nordeste 7 Nordeste 0 -- -- 74
2019-03-17 02:00:00 8.9 0 Calma 4 Nordeste 0 -- -- 72
2019-03-17 01:00:00 9.9 4 Nordeste 11 Nordeste 0 -- -- 68
2019-03-17 00:00:00 11.5 4 Este 9 Este 0 -- -- 63
2019-03-16 23:00:00 11.9 3 Este 6 Nordeste 0 -- -- 59
2019-03-16 22:00:00 12.8 3 Nordeste 4 Nordeste 0 -- -- 61
2019-03-16 21:00:00 14.9 0 Calma 4 Nordeste 0 -- -- 56
2019-03-16 20:00:00 18.1 3 Nordeste 10 Nordeste 0 -- -- 47
2019-03-16 19:00:00 21.5 4 Este 14 Nordeste 0 -- -- 38
2019-03-16 18:00:00 24.1 5 Este 21 Este 0 -- -- 33
2019-03-16 17:00:00 25.4 6 Este 18 Este 0 -- -- 31
2019-03-16 16:00:00 25.5 6 Este 16 Nordeste 0 -- -- 31
2019-03-16 15:00:00 24.6 5 Sudeste 15 Nordeste 0 -- -- 35
2019-03-16 14:00:00 22.9 4 Sudeste 14 Sudeste 0 -- -- 37
2019-03-16 13:00:00 20.3 4 Sudeste 9 Sudeste 0 -- -- 40
2019-03-16 12:00:00 16.7 3 Noroeste 10 Noroeste 0 -- -- 49
2019-03-16 11:00:00 12.9 3 Noroeste 9 Este 0 -- -- 54
2019-03-16 10:00:00 8.5 4 Nordeste 10 Este 0 -- -- 67
2019-03-16 09:00:00 3 3 Nordeste 7 Nordeste 0 -- -- 89
2019-03-16 08:00:00 1.1 2 Nordeste 5 Norte 0 -- -- 88
2019-03-16 07:00:00 2 2 Nordeste 4 Sudoeste 0 -- -- 87
2019-03-16 06:00:00 2.8 3 Sudoeste 8 Sudoeste 0 -- -- 85
2019-03-16 05:00:00 3.8 3 Sudoeste 13 Sur 0 -- -- 85
2019-03-16 04:00:00 4.8 0 Calma 8 Norte 0 -- -- 79
2019-03-16 03:00:00 5.6 3 Oeste 10 Oeste 0 -- -- 78
2019-03-16 02:00:00 6 3 Sudoeste 14 Sudoeste 0 -- -- 76
2019-03-16 01:00:00 6.7 6 Sudoeste 12 Sur 0 -- -- 72
2019-03-16 00:00:00 7.8 2 Nordeste 6 Norte 0 -- -- 60
2019-03-15 23:00:00 8.5 0 Calma 6 Noroeste 0 -- -- 58
2019-03-15 22:00:00 10.8 2 Sur 12 Norte 0 -- -- 53
2019-03-15 21:00:00 12.5 4 Norte 15 Norte 0 -- -- 46
2019-03-15 20:00:00 14.7 4 Este 16 Oeste 0 -- -- 38
2019-03-15 19:00:00 16.8 5 Oeste 17 Oeste 0 -- -- 35
2019-03-15 18:00:00 18.7 8 Oeste 23 Oeste 0 -- -- 37
2019-03-15 17:00:00 19.3 9 Oeste 22 Noroeste 0 -- -- 40
2019-03-15 16:00:00 19.1 9 Oeste 26 Oeste 0 -- -- 42
2019-03-15 15:00:00 18.4 9 Oeste 24 Oeste 0 -- -- 45
2019-03-15 14:00:00 17.5 8 Oeste 24 Oeste 0 -- -- 48
2019-03-15 13:00:00 16.2 9 Oeste 23 Norte 0 -- -- 50
2019-03-15 12:00:00 14.4 9 Oeste 21 Noroeste 0 -- -- 55
2019-03-15 11:00:00 12.6 8 Oeste 23 Oeste 0 -- -- 61
2019-03-15 10:00:00 10.2 8 Oeste 21 Sudoeste 0 -- -- 69
2019-03-15 09:00:00 6.7 8 Oeste 20 Oeste 0 -- -- 81
2019-03-15 08:00:00 4.8 7 Sudoeste 16 Oeste 0 -- -- 85
2019-03-15 07:00:00 5 6 Oeste 16 Sudoeste 0 -- -- 84
2019-03-15 06:00:00 4.6 4 Sudoeste 12 Sudoeste 0 -- -- 85
2019-03-15 05:00:00 4.7 4 Oeste 14 Sudoeste 0 -- -- 84
2019-03-15 04:00:00 5.4 3 Sudoeste 12 Sudoeste 0 -- -- 82
2019-03-15 03:00:00 5.7 4 Sudoeste 15 Sudoeste 0 -- -- 80
2019-03-15 02:00:00 6.7 6 Sudoeste 15 Oeste 0 -- -- 76
2019-03-15 01:00:00 7.4 4 Sudoeste 12 Sudoeste 0 -- -- 72
2019-03-15 00:00:00 8.4 4 Sudoeste 21 Norte 0 -- -- 68
2019-03-14 23:00:00 8.6 5 Norte 22 Norte 0 -- -- 66
2019-03-14 22:00:00 9 5 Oeste 32 Norte 0 -- -- 63
2019-03-14 21:00:00 9.5 14 Norte 37 Norte 0 -- -- 59
2019-03-14 20:00:00 9.8 13 Norte 37 Noroeste 0 -- -- 59
2019-03-14 19:00:00 10.7 13 Norte 35 Norte 0 -- -- 55
2019-03-14 18:00:00 12.3 13 Norte 37 Noroeste 0 -- -- 53
2019-03-14 17:00:00 13.1 12 Norte 39 Norte 0 -- -- 50
2019-03-14 16:00:00 13.4 13 Norte 42 Norte 0 -- -- 50
2019-03-14 15:00:00 13.4 16 Norte 32 Noroeste 0 -- -- 50
2019-03-14 14:00:00 12.4 6 Noroeste 28 Oeste 0 -- -- 56
2019-03-14 13:00:00 11.6 6 Oeste 27 Oeste 0 -- -- 61
2019-03-14 12:00:00 11.2 9 Oeste 28 Oeste 0 -- -- 61
2019-03-14 11:00:00 9.9 9 Oeste 26 Sudoeste 0 -- -- 63
2019-03-14 10:00:00 9.6 8 Oeste 28 Oeste 0 -- -- 65
2019-03-14 09:00:00 7.8 8 Oeste 19 Oeste 0 -- -- 73
2019-03-14 08:00:00 6.7 5 Oeste 22 Oeste 0 -- -- 75
2019-03-14 07:00:00 6.4 5 Nordeste 23 Noroeste 0 -- -- 77
2019-03-14 06:00:00 6.2 9 Oeste 24 Noroeste 0 -- -- 77
2019-03-14 05:00:00 6.2 8 Oeste 23 Noroeste 0 -- -- 77
2019-03-14 04:00:00 6 9 Oeste 24 Noroeste 0 -- -- 79
2019-03-14 03:00:00 6.1 8 Oeste 24 Oeste 0 -- -- 78
2019-03-14 02:00:00 6.3 12 Oeste 31 Noroeste 0 -- -- 76
2019-03-14 01:00:00 6.4 9 Oeste 24 Oeste 0 -- -- 76
2019-03-14 00:00:00 6.2 9 Oeste 24 Oeste 0 -- -- 77
2019-03-13 23:00:00 6.4 8 Sudoeste 22 Sudoeste 0 -- -- 75
2019-03-13 22:00:00 6.6 4 Sudoeste 14 Noroeste 0 -- -- 74
2019-03-13 21:00:00 7.3 6 Oeste 17 Sudoeste 0 -- -- 68
2019-03-13 20:00:00 8.1 5 Sudeste 28 Noroeste 0 -- -- 64
2019-03-13 19:00:00 9.4 5 Noroeste 30 Noroeste 0 -- -- 60
2019-03-13 18:00:00 9.9 8 Noroeste 34 Noroeste 0 -- -- 60
2019-03-13 17:00:00 10.9 10 Norte 44 Norte 0 -- -- 55
2019-03-13 16:00:00 12.3 12 Norte 44 Norte 0 -- -- 52
2019-03-13 15:00:00 12.9 10 Norte 32 Norte 0 -- -- 48
2019-03-13 14:00:00 12.4 11 Norte 33 Noroeste 0 -- -- 50
2019-03-13 13:00:00 12.5 9 Noroeste 38 Norte 0 -- -- 53
2019-03-13 12:00:00 12.2 17 Norte 43 Norte 0 -- -- 48
2019-03-13 11:00:00 10.5 9 Noroeste 27 Oeste 0 -- -- 61
2019-03-13 10:00:00 8.6 10 Oeste 28 Noroeste 0 -- -- 66
2019-03-13 09:00:00 7.3 9 Oeste 23 Noroeste 0 -- -- 69
2019-03-13 08:00:00 6.1 5 Oeste 16 Sudoeste 0 -- -- 71
2019-03-13 07:00:00 6.6 5 Oeste 26 Oeste 0 -- -- 67
2019-03-13 06:00:00 7.1 9 Oeste 25 Oeste 0 -- -- 68
2019-03-13 05:00:00 7.6 9 Oeste 25 Oeste 0 -- -- 65
2019-03-13 04:00:00 8.7 10 Oeste 28 Oeste 0 -- -- 65
2019-03-13 03:00:00 9.9 9 Oeste 28 Oeste 0 -- -- 63
2019-03-13 02:00:00 10.6 7 Oeste 27 Noroeste 0 -- -- 64
2019-03-13 01:00:00 11.1 6 Norte 21 Norte 0 -- -- 65
2019-03-13 00:00:00 11 4 Oeste 12 Oeste 0 -- -- 73
2019-03-12 23:00:00 9.2 2 Sudoeste 9 Sudoeste 0 -- -- 73
2019-03-12 22:00:00 10.7 2 Sudoeste 15 Noroeste 0 -- -- 63
2019-03-12 21:00:00 11.4 4 Norte 11 Noroeste 0 -- -- 58
2019-03-12 20:00:00 13.1 0 Calma 5 Nordeste 0 -- -- 55
2019-03-12 19:00:00 15.8 2 Nordeste 9 Este 0 -- -- 44
2019-03-12 18:00:00 17.8 3 Este 13 Este 0 -- -- 42
2019-03-12 17:00:00 18.6 5 Este 17 Este 0 -- -- 37
2019-03-12 16:00:00 18.6 6 Este 22 Nordeste 0 -- -- 39
2019-03-12 15:00:00 17.4 6 Este 23 Este 0 -- -- 40
2019-03-12 14:00:00 16.9 8 Este 22 Este 0 -- -- 43
2019-03-12 13:00:00 15.7 7 Este 18 Nordeste 0 -- -- 48
2019-03-12 12:00:00 14.4 5 Este 18 Nordeste 0 -- -- 54
2019-03-12 11:00:00 11.3 6 Este 20 Nordeste 0 -- -- 61
2019-03-12 10:00:00 8.9 6 Este 19 Este 0 -- -- 67
2019-03-12 09:00:00 4 5 Este 14 Este 0 -- -- 84
2019-03-12 08:00:00 0.6 4 Nordeste 10 Nordeste 0 -- -- 85
2019-03-12 07:00:00 0.2 5 Nordeste 10 Nordeste 0 -- -- 86
2019-03-12 06:00:00 0.5 2 Nordeste 8 Nordeste 0 -- -- 90
2019-03-12 05:00:00 0.8 0 Calma 6 Nordeste 0 -- -- 88
2019-03-12 04:00:00 1.9 2 Nordeste 4 Nordeste 0 -- -- 87
2019-03-12 03:00:00 2.6 3 Nordeste 5 Nordeste 0 -- -- 83
2019-03-12 02:00:00 3.8 0 Calma 6 Sudoeste 0 -- -- 83
2019-03-12 01:00:00 4.7 0 Calma 6 Sudoeste 0 -- -- 78
2019-03-12 00:00:00 6 3 Noroeste 6 Oeste 0 -- -- 75
2019-03-11 23:00:00 6.9 2 Sudoeste 9 Sudoeste 0 -- -- 71
2019-03-11 22:00:00 8.5 5 Norte 11 Noroeste 0 -- -- 65
2019-03-11 21:00:00 9.5 3 Oeste 11 Noroeste 0 -- -- 63
2019-03-11 20:00:00 11.2 4 Oeste 12 Oeste 0 -- -- 57
2019-03-11 19:00:00 13 7 Oeste 23 Oeste 0 -- -- 51
2019-03-11 18:00:00 14.6 10 Oeste 25 Noroeste 0 -- -- 46
2019-03-11 17:00:00 15.5 11 Oeste 35 Noroeste 0 -- -- 45
2019-03-11 16:00:00 15.9 10 Oeste 32 Noroeste 0 -- -- 44
2019-03-11 15:00:00 16.4 9 Noroeste 30 Noroeste 0 -- -- 41
2019-03-11 14:00:00 16.3 10 Noroeste 35 Noroeste 0 -- -- 43
2019-03-11 13:00:00 15.1 14 Oeste 30 Oeste 0 -- -- 44
2019-03-11 12:00:00 14.6 9 Norte 33 Norte 0 -- -- 44
2019-03-11 11:00:00 13 9 Oeste 30 Noroeste 0 -- -- 52
2019-03-11 10:00:00 11.2 9 Oeste 28 Oeste 0 -- -- 56
2019-03-11 09:00:00 8.6 11 Oeste 24 Sudoeste 0 -- -- 69
2019-03-11 08:00:00 7.5 6 Oeste 20 Oeste 0 -- -- 72
2019-03-11 07:00:00 8 3 Oeste 19 Oeste 0 -- -- 68
2019-03-11 06:00:00 9 6 Oeste 27 Noroeste 0 -- -- 65
2019-03-11 05:00:00 9.1 5 Oeste 25 Noroeste 0 -- -- 68
2019-03-11 04:00:00 9.1 6 Oeste 26 Oeste 0 -- -- 79
2019-03-11 03:00:00 10 10 Oeste 26 Oeste 0 -- -- 75
2019-03-11 02:00:00 10.5 8 Oeste 21 Oeste 0 -- -- 74
2019-03-11 01:00:00 10.5 8 Oeste 21 Oeste 0 -- -- 74
2019-03-11 00:00:00 10.5 8 Oeste 19 Oeste 0 -- -- 77
2019-03-10 23:00:00 11.2 7 Oeste 21 Oeste 0 -- -- 75
2019-03-10 22:00:00 11.6 5 Oeste 12 Sudoeste 0 -- -- 75
2019-03-10 21:00:00 12.9 3 Oeste 13 Norte 0 -- -- 70
2019-03-10 20:00:00 13.8 6 Norte 34 Norte 0 -- -- 68
2019-03-10 19:00:00 15.2 12 Norte 32 Norte 0 -- -- 63
2019-03-10 18:00:00 16.9 14 Norte 35 Noroeste 0 -- -- 57
2019-03-10 17:00:00 18.7 9 Norte 31 Norte 0 -- -- 50
2019-03-10 16:00:00 19.4 9 Norte 35 Noroeste 0 -- -- 49
2019-03-10 15:00:00 19.4 9 Norte 34 Noroeste 0 -- -- 48
2019-03-10 14:00:00 19.7 10 Norte 39 Noroeste 0 -- -- 52
2019-03-10 13:00:00 19.1 8 Norte 30 Norte 0 -- -- 55
2019-03-10 12:00:00 18.1 5 Oeste 17 Sudoeste 0 -- -- 58
2019-03-10 11:00:00 14.9 8 Oeste 18 Oeste 0 -- -- 74
2019-03-10 10:00:00 9.2 4 Sudoeste 8 Sudoeste 0 -- -- 94
2019-03-10 09:00:00 5.3 3 Sudoeste 4 Sudoeste 0 -- -- 96
2019-03-10 08:00:00 3.8 0 Calma 3 Nordeste 0 -- -- 94
2019-03-10 07:00:00 4 0 Calma 2 Nordeste 0 -- -- 93
2019-03-10 06:00:00 4.5 0 Calma 2 Nordeste 0 -- -- 92
2019-03-10 05:00:00 5.1 0 Calma 2 Nordeste 0 -- -- 91
2019-03-10 04:00:00 5.7 0 Calma 4 Este 0 -- -- 91
2019-03-10 03:00:00 6.7 0 Calma 3 Sur 0 -- -- 89
2019-03-10 02:00:00 7.6 0 Calma 2 Sur 0 -- -- 88
2019-03-10 01:00:00 8.4 0 Calma 4 Norte 0 -- -- 87
2019-03-10 00:00:00 9.8 0 Calma 3 Norte 0 -- -- 85
2019-03-09 23:00:00 11.1 0 Calma -- -- 0 -- -- 83
2019-03-09 22:00:00 12.2 0 Calma 5 Sudoeste 0 -- -- 79
2019-03-09 21:00:00 13.6 2 Sur 7 Noroeste 0 -- -- 75
2019-03-09 20:00:00 15.1 3 Norte 6 Norte 0 -- -- 70
2019-03-09 19:00:00 17.2 2 Sudoeste 12 Norte 0 -- -- 64
2019-03-09 18:00:00 18.6 3 Norte 12 Oeste 0 -- -- 59
2019-03-09 17:00:00 19.4 6 Norte 18 Noroeste 0 -- -- 55
2019-03-09 16:00:00 19.9 5 Norte 17 Norte 0 -- -- 54
2019-03-09 15:00:00 18.8 5 Noroeste 19 Oeste 0 -- -- 52
2019-03-09 14:00:00 18.3 9 Oeste 22 Noroeste 0 -- -- 51
2019-03-09 13:00:00 16.5 7 Oeste 18 Oeste 0 -- -- 54
2019-03-09 12:00:00 15.1 7 Oeste 18 Noroeste 0 -- -- 58
2019-03-09 11:00:00 11.6 9 Sudoeste 18 Sudoeste 0 -- -- 70
2019-03-09 10:00:00 8.2 8 Sudoeste 14 Sudoeste 0 -- -- 79
2019-03-09 09:00:00 5 5 Sudoeste 10 Sudoeste 0 -- -- 91
2019-03-09 08:00:00 2.9 3 Sudoeste 6 Sudoeste 0 -- -- 92
2019-03-09 07:00:00 2.8 0 Calma 2 Sudoeste 0 -- -- 93
2019-03-09 06:00:00 2.5 0 Calma 3 Norte 0 -- -- 89
2019-03-09 05:00:00 2.8 0 Calma 4 Nordeste 0.2 -- -- 90
2019-03-09 04:00:00 3.2 0 Calma 2 Sur 0 -- -- 91
2019-03-09 03:00:00 3.3 0 Calma 3 Sur 0 -- -- 87
2019-03-09 02:00:00 4.2 2 Sudoeste 5 Sur 0 -- -- 86
2019-03-09 01:00:00 5 0 Calma 3 Norte 0 -- -- 83
2019-03-09 00:00:00 6.1 2 Oeste 5 Oeste 0 -- -- 80
2019-03-08 23:00:00 6.7 2 Sudoeste 4 Sudoeste 0 -- -- 78
2019-03-08 22:00:00 8.3 3 Sudoeste 6 Oeste 0 -- -- 71
2019-03-08 21:00:00 9.5 0 Calma 4 Sudoeste 0 -- -- 67
2019-03-08 20:00:00 11.5 0 Calma 6 Noroeste 0 -- -- 61
2019-03-08 19:00:00 13.5 3 Norte 17 Noroeste 0 -- -- 50
2019-03-08 18:00:00 15.2 4 Noroeste 15 Oeste 0 -- -- 44
2019-03-08 17:00:00 15.7 5 Norte 21 Noroeste 0 -- -- 45
2019-03-08 16:00:00 15.5 9 Oeste 25 Oeste 0 -- -- 48
2019-03-08 15:00:00 15.3 6 Oeste 26 Oeste 0 -- -- 49
2019-03-08 14:00:00 15 7 Oeste 21 Noroeste 0 -- -- 52
2019-03-08 13:00:00 14.3 8 Oeste 24 Sudoeste 0 -- -- 58
2019-03-08 12:00:00 14 7 Oeste 22 Oeste 0 -- -- 58
2019-03-08 11:00:00 12.5 6 Oeste 18 Sudoeste 0 -- -- 65
2019-03-08 10:00:00 9.7 3 Oeste 10 Oeste 0 -- -- 77
2019-03-08 09:00:00 6.5 2 Sur 3 Sudoeste 0 -- -- 91
2019-03-08 08:00:00 5.8 0 Calma 6 Sudoeste 0.2 -- -- 88
2019-03-08 07:00:00 5.9 0 Calma 5 Nordeste 0.2 -- -- 87
2019-03-08 06:00:00 6.1 2 Nordeste 8 Nordeste 0 -- -- 81
2019-03-08 05:00:00 6.2 4 Nordeste 6 Nordeste 0 -- -- 76
2019-03-08 04:00:00 5.8 3 Nordeste 5 Nordeste 0 -- -- 74
2019-03-08 03:00:00 6.5 3 Este 12 Norte 0 -- -- 76
2019-03-08 02:00:00 6 2 Este 7 Nordeste 0 -- -- 78
2019-03-08 01:00:00 5.9 4 Nordeste 9 Nordeste 0 -- -- 75
2019-03-08 00:00:00 5.9 2 Norte 5 Nordeste 0 -- -- 72
2019-03-07 23:00:00 5.8 2 Este 9 Nordeste 0 -- -- 74
2019-03-07 22:00:00 6.8 5 Nordeste 10 Nordeste 0 -- -- 72
2019-03-07 21:00:00 8.1 4 Nordeste 9 Este 0 -- -- 66
2019-03-07 20:00:00 9.9 3 Nordeste 6 Nordeste 0 -- -- 58
2019-03-07 19:00:00 12.5 0 Calma 9 Norte 0 -- -- 49
2019-03-07 18:00:00 14.2 2 Nordeste 11 Sudoeste 0 -- -- 44
2019-03-07 17:00:00 15.6 5 Sudeste 14 Sudeste 0 -- -- 36
2019-03-07 16:00:00 15.5 5 Sur 18 Sudoeste 0 -- -- 36
2019-03-07 15:00:00 15 5 Oeste 14 Oeste 0 -- -- 40
2019-03-07 14:00:00 14.2 3 Sudoeste 13 Oeste 0 -- -- 47
2019-03-07 13:00:00 13.2 5 Noroeste 13 Norte 0 -- -- 50
2019-03-07 12:00:00 12.1 6 Oeste 14 Noroeste 0 -- -- 53
2019-03-07 11:00:00 11.2 5 Oeste 17 Oeste 0 -- -- 59
2019-03-07 10:00:00 9 5 Oeste 12 Noroeste 0.2 -- -- 71
2019-03-07 09:00:00 6.5 4 Oeste 9 Sudoeste 0 -- -- 78
2019-03-07 08:00:00 5.7 3 Oeste 7 Sudoeste 0 -- -- 81
2019-03-07 07:00:00 6.8 0 Calma 7 Sudoeste 0 -- -- 80
2019-03-07 06:00:00 7.7 0 Calma 9 Sudoeste 0 -- -- 77
2019-03-07 05:00:00 8.2 4 Oeste 17 Norte 0 -- -- 75
2019-03-07 04:00:00 8.3 3 Oeste 12 Noroeste 0.2 -- -- 77
2019-03-07 03:00:00 9.4 3 Sudoeste 14 Sudoeste 0 -- -- 69
2019-03-07 02:00:00 10.2 6 Norte 16 Nordeste 0 -- -- 66
2019-03-07 01:00:00 10.5 7 Sudoeste 24 Sudoeste 0 -- -- 65
2019-03-07 00:00:00 10.6 12 Sudoeste 29 Sudoeste 0 -- -- 63
2019-03-06 23:00:00 10.4 12 Sudoeste 33 Sudoeste 0 -- -- 63
2019-03-06 22:00:00 10.3 8 Sudoeste 29 Sudoeste 0 -- -- 60
2019-03-06 21:00:00 10 11 Sudoeste 20 Sudoeste 0 -- -- 64
2019-03-06 20:00:00 10.4 9 Sudoeste 27 Sudoeste 0 -- -- 67
2019-03-06 19:00:00 10.2 3 Sur 17 Sudoeste 0 -- -- 81
2019-03-06 18:00:00 10 3 Sudoeste 41 Sudoeste 2.6 -- -- 86
2019-03-06 17:00:00 14.4 17 Sudoeste 46 Sudoeste 0.6 -- -- 63
2019-03-06 16:00:00 15.7 8 Este 27 Este 0 -- -- 74
2019-03-06 15:00:00 12.8 8 Este 23 Sudeste 0.2 -- -- 85
2019-03-06 14:00:00 12.6 5 Este 35 Este 0.8 -- -- 83
2019-03-06 13:00:00 13.7 15 Este 40 Este 0 -- -- 71
2019-03-06 12:00:00 14.3 14 Este 34 Este 0 -- -- 67
2019-03-06 11:00:00 11.3 12 Este 39 Este 0 -- -- 75
2019-03-06 10:00:00 10.7 11 Este 33 Este 0 -- -- 71
2019-03-06 09:00:00 10.1 9 Este 36 Este 0 -- -- 73
2019-03-06 08:00:00 10.1 10 Este 32 Nordeste 0 -- -- 77
2019-03-06 07:00:00 10.1 9 Este 29 Este 0 -- -- 81
2019-03-06 06:00:00 10.3 11 Este 35 Este 0 -- -- 81
2019-03-06 05:00:00 10 12 Este 32 Este 0 -- -- 85
2019-03-06 04:00:00 10.3 10 Este 35 Nordeste 0 -- -- 84
2019-03-06 03:00:00 10.3 9 Este 39 Este 0 -- -- 81
2019-03-06 02:00:00 10.1 9 Este 30 Nordeste 0 -- -- 75
2019-03-06 01:00:00 10.2 8 Este 25 Este 0 -- -- 72
2019-03-06 00:00:00 10.1 8 Este 23 Nordeste 0 -- -- 69
2019-03-05 23:00:00 10.7 8 Este 20 Este 0 -- -- 67
2019-03-05 22:00:00 11.1 6 Nordeste 25 Este 0 -- -- 65
2019-03-05 21:00:00 12.2 6 Este 18 Este 0 -- -- 61
2019-03-05 20:00:00 13.8 7 Este 22 Este 0 -- -- 55
2019-03-05 19:00:00 15.6 7 Este 19 Sudeste 0 -- -- 51
2019-03-05 18:00:00 17.7 6 Este 17 Este 0 -- -- 44
2019-03-05 17:00:00 18.5 6 Sudeste 20 Este 0 -- -- 42
2019-03-05 16:00:00 19.4 8 Sudeste 21 Sudeste 0 -- -- 40
2019-03-05 15:00:00 18.6 6 Sudeste 18 Sudeste 0 -- -- 44
2019-03-05 14:00:00 18.2 7 Sudeste 23 Este 0 -- -- 44
2019-03-05 13:00:00 16.9 4 Sur 13 Sur 0 -- -- 50
2019-03-05 12:00:00 15 4 Sudeste 11 Sudoeste 0 -- -- 53
2019-03-05 11:00:00 13 5 Sudoeste 11 Sudeste 0 -- -- 56
2019-03-05 10:00:00 9.3 3 Este 10 Este 0 -- -- 69
2019-03-05 09:00:00 5.7 3 Nordeste 8 Nordeste 0 -- -- 81
2019-03-05 08:00:00 4.1 3 Nordeste 6 Nordeste 0 -- -- 85
2019-03-05 07:00:00 5.2 2 Nordeste 6 Nordeste 0 -- -- 84
2019-03-05 06:00:00 5.6 2 Este 5 Nordeste 0 -- -- 83
2019-03-05 05:00:00 5.9 0 Calma 5 Nordeste 0 -- -- 82
2019-03-05 04:00:00 6.4 3 Nordeste 6 Nordeste 0.2 -- -- 79
2019-03-05 03:00:00 7.3 0 Calma 6 Sudoeste 0 -- -- 75
2019-03-05 02:00:00 8 3 Sudoeste 9 Sudoeste 0 -- -- 70
2019-03-05 01:00:00 8.5 3 Sudoeste 6 Sudoeste 0 -- -- 68
2019-03-05 00:00:00 8.9 3 Sudoeste 8 Sur 0 -- -- 68
2019-03-04 23:00:00 9.9 3 Oeste 10 Sudoeste 0 -- -- 64
2019-03-04 22:00:00 11.1 4 Norte 15 Norte 0 -- -- 58
2019-03-04 21:00:00 11.5 5 Norte 20 Noroeste 0 -- -- 57
2019-03-04 20:00:00 12.5 9 Norte 20 Noroeste 0 -- -- 56
2019-03-04 19:00:00 15.1 6 Norte 13 Norte 0 -- -- 49
2019-03-04 18:00:00 17 8 Norte 21 Noroeste 0 -- -- 44
2019-03-04 17:00:00 18 5 Oeste 20 Oeste 0 -- -- 38
2019-03-04 16:00:00 18.9 6 Norte 23 Norte 0 -- -- 38
2019-03-04 15:00:00 18.8 6 Oeste 19 Oeste 0 -- -- 39
2019-03-04 14:00:00 18.2 9 Oeste 21 Oeste 0 -- -- 42
2019-03-04 13:00:00 17.7 8 Oeste 20 Oeste 0 -- -- 46
2019-03-04 12:00:00 17.6 7 Oeste 26 Oeste 0 -- -- 47
2019-03-04 11:00:00 17 6 Oeste 22 Norte 0 -- -- 50
2019-03-04 10:00:00 15.8 2 Sudeste 10 Noroeste 0 -- -- 54
2019-03-04 09:00:00 13.5 4 Norte 10 Norte 0 -- -- 59
2019-03-04 08:00:00 13.2 4 Sudoeste 11 Sudoeste 0 -- -- 57
2019-03-04 07:00:00 13.9 2 Sudeste 21 Sur 0 -- -- 50
2019-03-04 06:00:00 14.4 11 Sudoeste 23 Sur 0 -- -- 45
2019-03-04 05:00:00 14 7 Sudoeste 20 Sudoeste 0 -- -- 46
2019-03-04 04:00:00 13.7 7 Sur 22 Sur 0.2 -- -- 46
2019-03-04 03:00:00 10.1 8 Sudoeste 17 Sudoeste 0 -- -- 54
2019-03-04 02:00:00 9.7 3 Nordeste 8 Nordeste 0 -- -- 65
2019-03-04 01:00:00 10.7 4 Nordeste 13 Nordeste 0 -- -- 65
2019-03-04 00:00:00 11.8 4 Nordeste 14 Nordeste 0 -- -- 61
2019-03-03 23:00:00 13.3 6 Este 20 Este 0 -- -- 56
2019-03-03 22:00:00 13.7 5 Este 17 Nordeste 0 -- -- 55
2019-03-03 21:00:00 13.8 4 Nordeste 12 Este 0 -- -- 55
2019-03-03 20:00:00 15.4 4 Este 13 Este 0 -- -- 51
2019-03-03 19:00:00 16.9 5 Este 13 Nordeste 0 -- -- 48
2019-03-03 18:00:00 18 5 Este 16 Este 0 -- -- 40
2019-03-03 17:00:00 19.8 5 Este 19 Este 0 -- -- 37
2019-03-03 16:00:00 21.8 6 Este 22 Sudeste 0 -- -- 33
2019-03-03 15:00:00 21.7 7 Este 20 Este 0 -- -- 34
2019-03-03 14:00:00 20.9 7 Este 19 Sudeste 0 -- -- 37
2019-03-03 13:00:00 19.8 7 Este 17 Este 0 -- -- 40
2019-03-03 12:00:00 16.9 5 Este 17 Este 0 -- -- 47
2019-03-03 11:00:00 13 6 Este 16 Este 0 -- -- 56
2019-03-03 10:00:00 7.7 3 Nordeste 7 Norte 0 -- -- 73
2019-03-03 09:00:00 3.2 3 Nordeste 7 Nordeste 0 -- -- 85
2019-03-03 08:00:00 1.9 2 Nordeste 8 Nordeste 0 -- -- 85
2019-03-03 07:00:00 2.6 0 Calma 6 Nordeste 0 -- -- 84
2019-03-03 06:00:00 3.1 0 Calma 10 Nordeste 0 -- -- 82
2019-03-03 05:00:00 3.3 3 Nordeste 9 Nordeste 0 -- -- 82
2019-03-03 04:00:00 3.8 2 Nordeste 13 Nordeste 0 -- -- 83
2019-03-03 03:00:00 4.4 4 Nordeste 12 Este 0 -- -- 79
2019-03-03 02:00:00 4.7 2 Nordeste 5 Nordeste 0 -- -- 79
2019-03-03 01:00:00 6.2 3 Nordeste 3 Nordeste 0 -- -- 75
2019-03-03 00:00:00 7.7 0 Calma 9 Sudoeste 0 -- -- 72
2019-03-02 23:00:00 8.6 2 Sur 10 Sudoeste 0 -- -- 69
2019-03-02 22:00:00 10.1 0 Calma 13 Sudoeste 0 -- -- 63
2019-03-02 21:00:00 11.9 3 Sur 9 Noroeste 0 -- -- 59
2019-03-02 20:00:00 14.3 6 Norte 19 Norte 0 -- -- 49
2019-03-02 19:00:00 16.1 6 Norte 19 Noroeste 0 -- -- 47
2019-03-02 18:00:00 18 9 Norte 27 Noroeste 0 -- -- 42
2019-03-02 17:00:00 19.2 8 Norte 24 Norte 0 -- -- 39
2019-03-02 16:00:00 19.9 9 Norte 27 Noroeste 0 -- -- 38
2019-03-02 15:00:00 19.5 9 Noroeste 35 Norte 0 -- -- 38
2019-03-02 14:00:00 18.5 8 Oeste 27 Oeste 0 -- -- 46
2019-03-02 13:00:00 17.6 8 Oeste 27 Oeste 0 -- -- 49
2019-03-02 12:00:00 16.7 7 Oeste 22 Noroeste 0 -- -- 54
2019-03-02 11:00:00 15.5 9 Norte 26 Norte 0 -- -- 55
2019-03-02 10:00:00 13.2 5 Oeste 17 Noroeste 0 -- -- 69
2019-03-02 09:00:00 9.7 4 Oeste 12 Oeste 0 -- -- 81
2019-03-02 08:00:00 8.1 3 Noroeste 10 Sudoeste 0 -- -- 80
2019-03-02 07:00:00 7.5 3 Sudoeste 12 Sudoeste 0 -- -- 77
2019-03-02 06:00:00 8.2 4 Sudoeste 14 Noroeste 0 -- -- 73
2019-03-02 05:00:00 7.9 3 Sudoeste 14 Oeste 0 -- -- 75
2019-03-02 04:00:00 8.5 5 Oeste 16 Oeste 0.2 -- -- 76
2019-03-02 03:00:00 8.7 6 Oeste 16 Sudoeste 0 -- -- 72
2019-03-02 02:00:00 8.1 4 Sudoeste 13 Sudoeste 0 -- -- 73
2019-03-02 01:00:00 8.7 5 Sudoeste 20 Oeste 0 -- -- 70
2019-03-02 00:00:00 9.4 4 Sudoeste 17 Oeste 0 -- -- 66
2019-03-01 23:00:00 11.3 6 Oeste 16 Oeste 0 -- -- 60
2019-03-01 22:00:00 10.7 5 Oeste 17 Oeste 0 -- -- 60
2019-03-01 21:00:00 11.4 4 Oeste 17 Noroeste 0 -- -- 56
2019-03-01 20:00:00 13.1 4 Noroeste 22 Noroeste 0 -- -- 47
2019-03-01 19:00:00 15 4 Noroeste 19 Norte 0 -- -- 40
2019-03-01 18:00:00 17.3 7 Oeste 25 Noroeste 0 -- -- 39
2019-03-01 17:00:00 18 9 Oeste 24 Oeste 0 -- -- 37
2019-03-01 16:00:00 18 10 Oeste 25 Oeste 0 -- -- 42
2019-03-01 15:00:00 17.4 10 Oeste 23 Oeste 0 -- -- 45
2019-03-01 14:00:00 16.4 9 Oeste 23 Noroeste 0 -- -- 50
2019-03-01 13:00:00 15.2 10 Oeste 21 Oeste 0 -- -- 50
2019-03-01 12:00:00 13.7 8 Oeste 22 Oeste 0 -- -- 55
2019-03-01 11:00:00 11.8 8 Oeste 21 Oeste 0 -- -- 64
2019-03-01 10:00:00 8.5 7 Oeste 17 Oeste 0 -- -- 77
2019-03-01 09:00:00 5.2 5 Oeste 11 Oeste 0 -- -- 86
2019-03-01 08:00:00 3.9 3 Sudoeste 6 Sudoeste 0 -- -- 88
2019-03-01 07:00:00 4 0 Calma 7 Oeste 0 -- -- 85
2019-03-01 06:00:00 5.5 5 Oeste 14 Oeste 0 -- -- 84
2019-03-01 05:00:00 4.3 0 Calma 5 Norte 0 -- -- 80
2019-03-01 04:00:00 6.2 2 Oeste 8 Oeste 0 -- -- 79
2019-03-01 03:00:00 7 2 Sudoeste 14 Noroeste 0 -- -- 72
2019-03-01 02:00:00 7.6 4 Oeste 9 Noroeste 0 -- -- 69
2019-03-01 01:00:00 8.8 3 Oeste 19 Oeste 0 -- -- 65
2019-03-01 00:00:00 9.7 6 Oeste 19 Oeste 0 -- -- 59
2019-02-28 23:00:00 10.3 5 Norte 18 Sudoeste 0 -- -- 61
2019-02-28 22:00:00 10.4 7 Oeste 28 Noroeste 0 -- -- 65
2019-02-28 21:00:00 10.8 7 Oeste 24 Oeste 0 -- -- 66
2019-02-28 20:00:00 12 11 Oeste 34 Noroeste 0 -- -- 61
2019-02-28 19:00:00 13.5 10 Oeste 22 Oeste 0 -- -- 58
2019-02-28 18:00:00 15.7 13 Oeste 37 Oeste 0 -- -- 52
2019-02-28 17:00:00 17.5 15 Oeste 42 Oeste 0 -- -- 47
2019-02-28 16:00:00 18.2 15 Oeste 34 Oeste 0 -- -- 45
2019-02-28 15:00:00 18.4 13 Oeste 31 Noroeste 0 -- -- 44
2019-02-28 14:00:00 17.8 13 Oeste 30 Oeste 0 -- -- 45
2019-02-28 13:00:00 17 11 Oeste 33 Noroeste 0 -- -- 48
2019-02-28 12:00:00 15.8 11 Oeste 25 Noroeste 0 -- -- 51
2019-02-28 11:00:00 13.7 12 Oeste 30 Sudoeste 0 -- -- 60
2019-02-28 10:00:00 11.7 10 Oeste 21 Oeste 0 -- -- 67
2019-02-28 09:00:00 9.3 8 Oeste 18 Oeste 0 -- -- 77
2019-02-28 08:00:00 8.8 6 Oeste 19 Oeste 0 -- -- 77
2019-02-28 07:00:00 9 6 Oeste 22 Noroeste 0 -- -- 75
2019-02-28 06:00:00 9.2 9 Oeste 20 Noroeste 0 -- -- 76
2019-02-28 05:00:00 9.2 8 Oeste 18 Sudoeste 0 -- -- 78
2019-02-28 04:00:00 8.5 4 Sudoeste 15 Sudoeste 0 -- -- 79
2019-02-28 03:00:00 8.3 2 Sur 11 Sudoeste 0 -- -- 74
2019-02-28 02:00:00 8.7 5 Sudoeste 12 Oeste 0 -- -- 70
2019-02-28 01:00:00 7.4 4 Sudoeste 8 Sudoeste 0 -- -- 72
2019-02-28 00:00:00 6.2 2 Sudoeste 5 Sudoeste 0 -- -- 77
2019-02-27 23:00:00 7.1 0 Calma 4 Nordeste 0 -- -- 74
2019-02-27 22:00:00 8.8 0 Calma 4 Este 0 -- -- 67
2019-02-27 21:00:00 11.5 0 Calma 5 Norte 0 -- -- 63
2019-02-27 20:00:00 14.4 0 Calma 2 Nordeste 0 -- -- 49
2019-02-27 19:00:00 18.9 0 Calma 5 Sudoeste 0 -- -- 39
2019-02-27 18:00:00 22.5 3 Sudoeste 5 Sudoeste 0 -- -- 31
2019-02-27 17:00:00 23.2 3 Noroeste 6 Sudoeste 0 -- -- 26
2019-02-27 16:00:00 22.4 2 Oeste 9 Sudoeste 0 -- -- 31
2019-02-27 15:00:00 20.9 4 Sudoeste 9 Oeste 0 -- -- 35
2019-02-27 14:00:00 19 3 Oeste 9 Sudoeste 0 -- -- 43
2019-02-27 13:00:00 16.9 4 Sudoeste 7 Oeste 0 -- -- 47
2019-02-27 12:00:00 13.5 3 Sudoeste 8 Sudoeste 0 -- -- 53
2019-02-27 11:00:00 9.7 3 Oeste 6 Sur 0 -- -- 62
2019-02-27 10:00:00 5.1 0 Calma 4 Oeste 0 -- -- 81
2019-02-27 09:00:00 1.2 0 Calma 3 Este 0 -- -- 90
2019-02-27 08:00:00 0.7 0 Calma 3 Nordeste 0 -- -- 87
2019-02-27 07:00:00 1.2 0 Calma 6 Nordeste 0 -- -- 85
2019-02-27 06:00:00 1.6 3 Nordeste 5 Nordeste 0 -- -- 82
2019-02-27 05:00:00 2.7 0 Calma 4 Este 0 -- -- 82
2019-02-27 04:00:00 3.7 0 Calma 4 Sudoeste 0 -- -- 79
2019-02-27 03:00:00 5.1 0 Calma 11 Nordeste 0 -- -- 73
2019-02-27 02:00:00 5.9 5 Nordeste 10 Este 0 -- -- 72
2019-02-27 01:00:00 6.1 3 Nordeste 10 Este 0 -- -- 73
2019-02-27 00:00:00 7 2 Nordeste 6 Nordeste 0 -- -- 71
2019-02-26 23:00:00 8.2 4 Nordeste 8 Nordeste 0 -- -- 68
2019-02-26 22:00:00 8.5 4 Nordeste 8 Este 0 -- -- 68
2019-02-26 21:00:00 11 4 Nordeste 6 Nordeste 0 -- -- 61
2019-02-26 20:00:00 13.8 3 Este 7 Nordeste 0 -- -- 54
2019-02-26 19:00:00 17.8 2 Este 10 Nordeste 0 -- -- 42
2019-02-26 18:00:00 21.1 3 Este 10 Nordeste 0 -- -- 33
2019-02-26 17:00:00 22.3 3 Sudeste 11 Nordeste 0 -- -- 32
2019-02-26 16:00:00 22.2 4 Este 12 Nordeste 0 -- -- 35
2019-02-26 15:00:00 21.3 3 Este 13 Este 0 -- -- 39
2019-02-26 14:00:00 19.6 4 Este 8 Nordeste 0 -- -- 45
2019-02-26 13:00:00 16.9 3 Oeste 8 Sudoeste 0 -- -- 54
2019-02-26 12:00:00 13.7 2 Oeste 8 Sudoeste 0 -- -- 61
2019-02-26 11:00:00 10.8 3 Oeste 5 Sudoeste 0 -- -- 69
2019-02-26 10:00:00 6.1 0 Calma 4 Este 0 -- -- 85
2019-02-26 09:00:00 2.2 0 Calma 5 Nordeste 0 -- -- 92
2019-02-26 08:00:00 1.5 0 Calma 3 Nordeste 0 -- -- 90
2019-02-26 07:00:00 2.1 0 Calma 4 Este 0 -- -- 90
2019-02-26 06:00:00 2.6 0 Calma 6 Nordeste 0 -- -- 88
2019-02-26 05:00:00 3.3 2 Nordeste 6 Este 0 -- -- 87
2019-02-26 04:00:00 3.8 0 Calma 5 Nordeste 0 -- -- 85
2019-02-26 03:00:00 4.5 0 Calma 7 Nordeste 0 -- -- 84
2019-02-26 02:00:00 5.3 2 Este 6 Nordeste 0 -- -- 82
2019-02-26 01:00:00 6.5 0 Calma 7 Norte 0 -- -- 78
2019-02-26 00:00:00 6.3 3 Nordeste 8 Nordeste 0 -- -- 79
2019-02-25 23:00:00 7.3 3 Nordeste 9 Nordeste 0 -- -- 76
2019-02-25 22:00:00 8.2 4 Nordeste 9 Nordeste 0 -- -- 74
2019-02-25 21:00:00 9.5 3 Nordeste 8 Nordeste 0 -- -- 71
2019-02-25 20:00:00 12.6 2 Nordeste 4 Este 0 -- -- 62
2019-02-25 19:00:00 15.8 0 Calma 5 Sudoeste 0 -- -- 54
2019-02-25 18:00:00 18.5 3 Sudoeste 8 Sudoeste 0 -- -- 46
2019-02-25 17:00:00 19.2 3 Oeste 12 Sudoeste 0 -- -- 44
2019-02-25 16:00:00 19.3 3 Sudoeste 12 Sudoeste 0 -- -- 44
2019-02-25 15:00:00 18.4 3 Norte 8 Este 0 -- -- 45
2019-02-25 14:00:00 17.9 3 Sudeste 9 Sudoeste 0 -- -- 47
2019-02-25 13:00:00 16.3 4 Sur 11 Sudeste 0 -- -- 51
2019-02-25 12:00:00 14.3 5 Este 10 Este 0 -- -- 57
2019-02-25 11:00:00 10.2 3 Nordeste 9 Sudeste 0 -- -- 67
2019-02-25 10:00:00 5 0 Calma 5 Nordeste 0 -- -- 89
2019-02-25 09:00:00 0.8 0 Calma 4 Nordeste 0 -- -- 92
2019-02-25 08:00:00 0.4 0 Calma 4 Este 0 -- -- 89
2019-02-25 07:00:00 1 2 Este 3 Nordeste 0 -- -- 89
2019-02-25 06:00:00 1.6 0 Calma 2 Nordeste 0 -- -- 88
2019-02-25 05:00:00 2.4 0 Calma 6 Nordeste 0 -- -- 86
2019-02-25 04:00:00 2.7 2 Nordeste 6 Nordeste 0 -- -- 87
2019-02-25 03:00:00 3.4 3 Nordeste 4 Este 0 -- -- 86
2019-02-25 02:00:00 4.4 0 Calma 4 Sudoeste 0 -- -- 81
2019-02-25 01:00:00 5.7 2 Este 10 Nordeste 0 -- -- 80
2019-02-25 00:00:00 6.1 6 Nordeste 13 Este 0 -- -- 79
2019-02-24 23:00:00 6.4 4 Nordeste 6 Nordeste 0 -- -- 79
2019-02-24 22:00:00 7.2 2 Nordeste 6 Este 0 -- -- 76
2019-02-24 21:00:00 9.4 3 Este 5 Nordeste 0 -- -- 73
2019-02-24 20:00:00 11.6 0 Calma 5 Sudoeste 0 -- -- 66
2019-02-24 19:00:00 14.5 2 Nordeste 7 Nordeste 0 -- -- 58
2019-02-24 18:00:00 17.1 3 Este 15 Nordeste 0 -- -- 49
2019-02-24 17:00:00 18.2 6 Este 20 Nordeste 0 -- -- 46
2019-02-24 16:00:00 18.5 6 Este 19 Este 0 -- -- 45
2019-02-24 15:00:00 18.4 5 Este 19 Nordeste 0 -- -- 43
2019-02-24 14:00:00 17.3 7 Este 18 Sudeste 0 -- -- 45
2019-02-24 13:00:00 16 6 Este 19 Nordeste 0 -- -- 50
2019-02-24 12:00:00 14.4 7 Este 25 Este 0 -- -- 55
2019-02-24 11:00:00 12.2 7 Este 20 Nordeste 0 -- -- 61
2019-02-24 10:00:00 6.8 4 Nordeste 8 Este 0 -- -- 79
2019-02-24 09:00:00 2.8 2 Nordeste 4 Nordeste 0 -- -- 89
2019-02-24 08:00:00 2.1 3 Nordeste 5 Nordeste 0 -- -- 86
2019-02-24 07:00:00 2.4 3 Nordeste 6 Nordeste 0 -- -- 85
2019-02-24 06:00:00 3 4 Nordeste 9 Nordeste 0 -- -- 84
2019-02-24 05:00:00 3.1 3 Nordeste 9 Nordeste 0 -- -- 84
2019-02-24 04:00:00 3.6 0 Calma 4 Nordeste 0 -- -- 79
2019-02-24 03:00:00 4.4 0 Calma 6 Nordeste 0 -- -- 76
2019-02-24 02:00:00 5.9 3 Nordeste -- -- 0 -- -- 69
2019-02-24 01:00:00 7.3 2 Este 7 Oeste 0 -- -- 64
2019-02-24 00:00:00 8.8 2 Oeste 9 Norte 0 -- -- 58
2019-02-23 23:00:00 9.7 0 Calma 17 Norte 0 -- -- 54
2019-02-23 22:00:00 11.8 8 Norte 16 Noroeste 0 -- -- 46
2019-02-23 21:00:00 13.5 4 Norte 23 Noroeste 0 -- -- 40
2019-02-23 20:00:00 15 11 Oeste 26 Oeste 0 -- -- 37
2019-02-23 19:00:00 16.2 11 Oeste 28 Oeste 0 -- -- 37
2019-02-23 18:00:00 18.7 12 Oeste 29 Oeste 0 -- -- 32
2019-02-23 17:00:00 22.4 7 Oeste 27 Oeste 0 -- -- 28
2019-02-23 16:00:00 23.4 7 Norte 27 Norte 0 -- -- 26
2019-02-23 15:00:00 22.9 8 Norte 28 Oeste 0 -- -- 27
2019-02-23 14:00:00 20.8 12 Oeste 27 Oeste 0 -- -- 31
2019-02-23 13:00:00 17.8 10 Oeste 26 Oeste 0 -- -- 37
2019-02-23 12:00:00 12.1 5 Sudoeste 9 Sudoeste 0 -- -- 59
2019-02-23 11:00:00 8 4 Sudoeste 9 Sudoeste 0 -- -- 70
2019-02-23 10:00:00 3.3 0 Calma 4 Sudoeste 0 -- -- 89
2019-02-23 09:00:00 -0.5 0 Calma 8 Este 0 -- -- 91
2019-02-23 08:00:00 -1 0 Calma 4 Nordeste 0 -- -- 90
2019-02-23 07:00:00 -0.7 0 Calma 4 Nordeste 0 -- -- 89
2019-02-23 06:00:00 -0.3 2 Este 3 Nordeste 0 -- -- 88
2019-02-23 05:00:00 0.5 0 Calma 2 Sudeste 0 -- -- 88
2019-02-23 04:00:00 1.3 0 Calma 3 Nordeste 0 -- -- 85
2019-02-23 03:00:00 2.3 0 Calma 2 Nordeste 0 -- -- 83
2019-02-23 02:00:00 3.5 3 Nordeste 5 Nordeste 0 -- -- 82
2019-02-23 01:00:00 4.3 0 Calma 3 Sudoeste 0 -- -- 80
2019-02-23 00:00:00 5.2 0 Calma 3 Nordeste 0 -- -- 76
2019-02-22 23:00:00 6.4 0 Calma 2 Este 0 -- -- 72
2019-02-22 22:00:00 8 0 Calma 4 Sudoeste 0 -- -- 69
2019-02-22 21:00:00 9.9 0 Calma 3 Sudoeste 0 -- -- 62
2019-02-22 20:00:00 12.4 0 Calma 4 Sudeste 0 -- -- 52
2019-02-22 19:00:00 16.4 0 Calma 8 Oeste 0 -- -- 41
2019-02-22 18:00:00 20 4 Oeste 12 Oeste 0 -- -- 31
2019-02-22 17:00:00 20.9 5 Oeste 17 Oeste 0 -- -- 28
2019-02-22 16:00:00 20.7 6 Oeste 19 Oeste 0 -- -- 32
2019-02-22 15:00:00 19.4 9 Oeste 17 Sudoeste 0 -- -- 37
2019-02-22 14:00:00 16.9 10 Sudoeste 18 Sudoeste 0 -- -- 52
2019-02-22 13:00:00 14.8 7 Oeste 16 Oeste 0 -- -- 57
2019-02-22 12:00:00 12 8 Oeste 17 Oeste 0 -- -- 65
2019-02-22 11:00:00 8.6 5 Oeste 12 Sudoeste 0 -- -- 76
2019-02-22 10:00:00 3.2 5 Sudoeste 9 Sudoeste 0 -- -- 92
2019-02-22 09:00:00 -0.2 0 Calma 4 Este 0 -- -- 93
2019-02-22 08:00:00 -0.2 0 Calma -- -- 0 -- -- 91
2019-02-22 07:00:00 0.3 0 Calma -- -- 0 -- -- 90
2019-02-22 06:00:00 0.8 0 Calma -- -- 0 -- -- 89
2019-02-22 05:00:00 2.1 0 Calma -- -- 0 -- -- 88
2019-02-22 04:00:00 2.8 0 Calma -- -- 0 -- -- 86
2019-02-22 03:00:00 3.9 3 Nordeste 8 Nordeste 0 -- -- 85
2019-02-22 02:00:00 4 3 Este 9 Nordeste 0 -- -- 87
2019-02-22 01:00:00 4.4 3 Nordeste 7 Nordeste 0 -- -- 85
2019-02-22 00:00:00 4.9 2 Este 7 Nordeste 0 -- -- 82
2019-02-21 23:00:00 6.4 4 Nordeste 6 Nordeste 0 -- -- 80
2019-02-21 22:00:00 7.1 3 Nordeste 5 Nordeste 0 -- -- 76
2019-02-21 21:00:00 8.8 2 Nordeste 5 Este 0 -- -- 71
2019-02-21 20:00:00 10.8 3 Nordeste 8 Nordeste 0 -- -- 65
2019-02-21 19:00:00 14.2 4 Nordeste 9 Este 0 -- -- 55
2019-02-21 18:00:00 17.3 3 Este 10 Este 0 -- -- 49
2019-02-21 17:00:00 18.5 5 Este 12 Nordeste 0 -- -- 47
2019-02-21 16:00:00 18.7 4 Este 11 Sudeste 0 -- -- 50
2019-02-21 15:00:00 17.9 4 Sudeste 11 Sudeste 0 -- -- 52
2019-02-21 14:00:00 16.6 4 Sudeste 12 Sudeste 0 -- -- 56
2019-02-21 13:00:00 14 4 Sudoeste 9 Sudoeste 0 -- -- 66
2019-02-21 12:00:00 11.3 5 Sudoeste 10 Sudoeste 0 -- -- 72
2019-02-21 11:00:00 9.2 3 Sur 9 Sudeste 0 -- -- 78
2019-02-21 10:00:00 5.4 3 Este 8 Este 0 -- -- 92
2019-02-21 09:00:00 2.2 3 Nordeste 5 Nordeste 0 -- -- 95
2019-02-21 08:00:00 1.1 0 Calma 5 Nordeste 0 -- -- 92
2019-02-21 07:00:00 1.5 0 Calma 4 Nordeste 0 -- -- 90
2019-02-21 06:00:00 2.4 3 Nordeste 7 Sudoeste 0 -- -- 90
2019-02-21 05:00:00 3 0 Calma 3 Nordeste 0 -- -- 90
2019-02-21 04:00:00 3.9 0 Calma 9 Nordeste 0 -- -- 88
2019-02-21 03:00:00 4.3 4 Nordeste 8 Este 0 -- -- 89
2019-02-21 02:00:00 4.6 4 Nordeste 11 Nordeste 0 -- -- 86
2019-02-21 01:00:00 5.4 4 Nordeste 9 Nordeste 0 -- -- 85
2019-02-21 00:00:00 4.9 4 Nordeste 9 Este 0 -- -- 86
2019-02-20 23:00:00 5.5 3 Nordeste 7 Este 0 -- -- 84
2019-02-20 22:00:00 6.6 3 Este 9 Nordeste 0 -- -- 81
2019-02-20 21:00:00 7.9 0 Calma 4 Nordeste 0 -- -- 79
2019-02-20 20:00:00 9.8 0 Calma 9 Nordeste 0 -- -- 74
2019-02-20 19:00:00 12.1 3 Este 8 Nordeste 0 -- -- 67
2019-02-20 18:00:00 14.7 3 Este 10 Este 0 -- -- 59
2019-02-20 17:00:00 15.6 4 Este 9 Nordeste 0 -- -- 55
2019-02-20 16:00:00 15.3 4 Sudoeste 12 Sudoeste 0 -- -- 59
2019-02-20 15:00:00 14.5 6 Sudoeste 14 Sudoeste 0 -- -- 61
2019-02-20 14:00:00 14.8 5 Sudeste 13 Este 0 -- -- 59
2019-02-20 13:00:00 13.6 5 Sudeste 16 Sudeste 0 -- -- 64
2019-02-20 12:00:00 11.6 5 Sudeste 14 Este 0 -- -- 70
2019-02-20 11:00:00 9.3 5 Este 19 Este 0 -- -- 80
2019-02-20 10:00:00 6.2 2 Este 10 Este 0 -- -- 93
2019-02-20 09:00:00 3.6 4 Nordeste 8 Este 0 -- -- 95
2019-02-20 08:00:00 1.9 4 Nordeste 9 Este 0 -- -- 92
2019-02-20 07:00:00 2.4 5 Nordeste 10 Nordeste 0 -- -- 91
2019-02-20 06:00:00 2.6 3 Nordeste 8 Nordeste 0 -- -- 90
2019-02-20 05:00:00 3.2 4 Este 11 Nordeste 0 -- -- 88
2019-02-20 04:00:00 3.6 4 Este 12 Sudeste 0 -- -- 88
2019-02-20 03:00:00 3.5 4 Este 9 Este 0 -- -- 88
2019-02-20 02:00:00 3.9 4 Nordeste 9 Nordeste 0 -- -- 87
2019-02-20 01:00:00 3.7 5 Nordeste 9 Nordeste 0 -- -- 86
2019-02-20 00:00:00 4.5 4 Nordeste 8 Nordeste 0 -- -- 85